Details for AirAsia X at WMKK




Go Back


Latest METAR
Local Time

WMKK 180600Z 15010KT 110V200 9999 FEW018 SCT140 BKN280 32/24 Q1006 NOSIG
18/08/2018, 14:29:53

Description
Results
AirAsia X Logo
Number of Pilots based at WMKK
0 Pilots Based here
Number of AirAsia X Flights Departed from WMKK
0 Flights Departed
Number of AirAsia X Flights Arrived at WMKK
0 Flights Arrived
Number of AirAsia X Schedules Departing from WMKK
41 Schedules
Number of AirAsia X Schedules Arriving at WMKK
39 Schedules
Number of AirAsia X Schedules Departing from WMKK availible today
26 Schedules Today
Number of AirAsia X Schedules Arriving at WMKK availible today
27 Schedules Today
Average Landing Rate at WMKK
-254 fpm
AirAsia X Average Landing Rate at WMKK
0 fpm
Total Fuel Purchased at WMKK by AirAsia X
0.00 kgs / 0.00 lbs

Pilots Based at WMKK


Pilot ID
Pilot Name
Pilot Rank
No. of Flights
No. of Flying Hours
There are no pilots assigned to this hub!   Will you be the first?
Content